Time;durP1;ratioP1;P1;durP2;ratioP2;P2;SDS_P1;SDS_P2;PMS_P1;PMS_P2;Temp;Humidity;BMP_temperature;BMP_pressure;BME280_temperature;BME280_humidity;BME280_pressure;Samples;Min_cycle;Max_cycle;Signal;HPM_P1;HPM_P2
2023/06/15 00:10:36;;;;;;;5.30;2.60;;;;;;;;;;4712691;30;20496;-85
2023/06/15 00:16:47;;;;;;;5.55;2.67;;;;;;;;;;4673502;30;20212;-84
2023/06/15 00:22:41;;;;;;;3.72;2.45;;;;;;;;;;4891255;23;20051;-84
2023/06/15 00:25:30;;;;;;;4.38;2.70;;;;;;;;;;4774346;29;20047;-85
2023/06/15 00:28:02;;;;;;;3.78;2.80;;;;;;;;;;4767478;29;20054;-84
2023/06/15 00:48:56;;;;;;;7.03;2.83;;;;;;;;;;4799153;29;20054;-85
2023/06/15 01:07:16;;;;;;;7.90;3.25;;;;;;;;;;4869940;24;20311;-83
2023/06/15 01:10:47;;;;;;;5.40;2.80;;;;;;;;;;4701953;30;20056;-83
2023/06/15 01:13:57;;;;;;;;;;;;;;;;;;;;;
2023/06/15 01:20:58;;;;;;;;;;;;;;;;;;;;;
2023/06/15 01:27:48;;;;;;;;;;;;;;;;;;;;;
2023/06/15 01:44:59;;;;;;;;;;;;;;;;;;;;;
2023/06/15 01:48:32;;;;;;;;;;;;;;;;;;;;;
2023/06/15 01:52:09;;;;;;;;;;;;;;;;;;;;;
2023/06/15 01:58:16;;;;;;;;;;;;;;;;;;;;;
2023/06/15 02:40:04;;;;;;;9.85;4.60;;;;;;;;;;4713659;30;20089;-83
2023/06/15 02:58:10;;;;;;;7.18;4.60;;;;;;;;;;4013126;24;20108;-83
2023/06/15 03:00:51;;;;;;;7.57;4.90;;;;;;;;;;4719466;29;20047;-83
2023/06/15 03:06:56;;;;;;;7.28;4.22;;;;;;;;;;4759632;29;20147;-82
2023/06/15 03:40:48;;;;;;;;;;;;;;;;;;;;;
2023/06/15 03:43:32;;;;;;;;;;;;;;;;;;;;;
2023/06/15 03:50:43;;;;;;;5.25;4.70;;;;;;;;;;4564398;31;20060;-83
2023/06/15 03:57:41;;;;;;;7.65;5.20;;;;;;;;;;4586609;30;20063;-83
2023/06/15 04:25:00;;;;;;;11.00;5.82;;;;;;;;;;5120944;27;20422;-87
2023/06/15 04:27:27;;;;;;;6.43;5.47;;;;;;;;;;5098274;27;20122;-86
2023/06/15 04:29:53;;;;;;;7.63;4.68;;;;;;;;;;5051092;28;20035;-86
2023/06/15 04:32:19;;;;;;;7.40;5.63;;;;;;;;;;5083346;28;20500;-87
2023/06/15 04:34:45;;;;;;;6.18;5.18;;;;;;;;;;5082082;28;20040;-85
2023/06/15 04:37:12;;;;;;;8.20;5.25;;;;;;;;;;5066073;28;20069;-86
2023/06/15 04:39:38;;;;;;;8.77;5.57;;;;;;;;;;5072428;28;20039;-86
2023/06/15 04:42:09;;;;;;;8.52;5.65;;;;;;;;;;5069236;28;20066;-86
2023/06/15 04:44:35;;;;;;;5.27;4.33;;;;;;;;;;5067147;28;20048;-87
2023/06/15 04:47:03;;;;;;;6.97;5.18;;;;;;;;;;5063421;28;20298;-87
2023/06/15 04:49:30;;;;;;;7.85;5.40;;;;;;;;;;5066377;28;20111;-87
2023/06/15 04:51:57;;;;;;;9.55;5.05;;;;;;;;;;5062814;28;20101;-87
2023/06/15 04:54:23;;;;;;;6.20;4.90;;;;;;;;;;5083994;28;20036;-87
2023/06/15 04:56:49;;;;;;;6.93;4.53;;;;;;;;;;5050790;28;20050;-86
2023/06/15 04:59:15;;;;;;;8.35;4.65;;;;;;;;;;5065410;28;20051;-87
2023/06/15 05:01:42;;;;;;;6.47;4.72;;;;;;;;;;5049082;28;20044;-86
2023/06/15 05:04:08;;;;;;;7.65;4.22;;;;;;;;;;5049315;28;20050;-87
2023/06/15 05:06:34;;;;;;;5.45;4.75;;;;;;;;;;5046954;28;20815;-87
2023/06/15 05:09:00;;;;;;;7.82;4.63;;;;;;;;;;5044645;28;20040;-87
2023/06/15 05:11:26;;;;;;;5.57;4.28;;;;;;;;;;5048940;28;20040;-87
2023/06/15 05:13:54;;;;;;;7.40;4.22;;;;;;;;;;5049856;28;20147;-87
2023/06/15 05:16:20;;;;;;;5.32;4.82;;;;;;;;;;5064350;28;20035;-87
2023/06/15 05:18:46;;;;;;;7.82;5.05;;;;;;;;;;5061090;28;20058;-87
2023/06/15 05:21:12;;;;;;;5.55;4.55;;;;;;;;;;5084191;28;20048;-87
2023/06/15 05:23:38;;;;;;;8.98;4.50;;;;;;;;;;5082524;28;20056;-88
2023/06/15 05:26:05;;;;;;;7.57;4.43;;;;;;;;;;5066407;28;20382;-87
2023/06/15 05:28:31;;;;;;;6.85;4.10;;;;;;;;;;5069687;28;20047;-88
2023/06/15 05:31:00;;;;;;;5.22;4.57;;;;;;;;;;5063917;28;20050;-88
2023/06/15 05:33:26;;;;;;;6.95;4.55;;;;;;;;;;5087978;28;20047;-88
2023/06/15 05:35:52;;;;;;;6.18;4.50;;;;;;;;;;5044900;28;23145;-88
2023/06/15 05:38:20;;;;;;;7.88;4.15;;;;;;;;;;5073847;28;20032;-88
2023/06/15 05:40:46;;;;;;;5.82;4.47;;;;;;;;;;5051581;28;20037;-88
2023/06/15 05:43:12;;;;;;;6.28;3.80;;;;;;;;;;5064606;28;20083;-88
2023/06/15 05:45:41;;;;;;;7.10;4.28;;;;;;;;;;5059677;28;20036;-88
2023/06/15 05:48:07;;;;;;;5.32;4.30;;;;;;;;;;5045944;28;20039;-88
2023/06/15 05:50:35;;;;;;;6.10;4.13;;;;;;;;;;5045892;28;20039;-88
2023/06/15 05:53:01;;;;;;;6.70;3.47;;;;;;;;;;5043167;28;20040;-88
2023/06/15 05:55:28;;;;;;;7.25;3.35;;;;;;;;;;5040590;28;20154;-88
2023/06/15 05:57:54;;;;;;;4.18;3.50;;;;;;;;;;5035523;28;20036;-88
2023/06/15 06:00:22;;;;;;;7.72;3.47;;;;;;;;;;5039690;28;20498;-88
2023/06/15 06:02:48;;;;;;;6.05;3.38;;;;;;;;;;5056023;28;20060;-88
2023/06/15 06:05:14;;;;;;;8.32;3.30;;;;;;;;;;5056285;28;20189;-88
2023/06/15 06:07:40;;;;;;;4.75;3.50;;;;;;;;;;5034777;28;20045;-88
2023/06/15 06:10:07;;;;;;;5.47;3.20;;;;;;;;;;5039087;28;20028;-88
2023/06/15 06:12:33;;;;;;;4.40;3.60;;;;;;;;;;5038601;28;20037;-88
2023/06/15 06:14:59;;;;;;;5.85;3.45;;;;;;;;;;5032323;28;20516;-88
2023/06/15 06:17:25;;;;;;;6.60;3.30;;;;;;;;;;5058708;28;20040;-88
2023/06/15 06:19:51;;;;;;;3.90;3.33;;;;;;;;;;5050754;28;20106;-88
2023/06/15 06:22:18;;;;;;;7.00;3.25;;;;;;;;;;5075060;28;20497;-88
2023/06/15 06:24:44;;;;;;;5.18;3.08;;;;;;;;;;5032079;28;20056;-88
2023/06/15 06:27:10;;;;;;;5.88;3.42;;;;;;;;;;5035825;28;20036;-88
2023/06/15 06:29:36;;;;;;;6.35;3.10;;;;;;;;;;5058355;28;20047;-88
2023/06/15 06:32:02;;;;;;;5.25;3.00;;;;;;;;;;5048630;28;20040;-88
2023/06/15 06:34:28;;;;;;;4.88;3.22;;;;;;;;;;5056327;28;21537;-89
2023/06/15 06:36:54;;;;;;;3.35;2.97;;;;;;;;;;5033196;28;20379;-88
2023/06/15 06:39:20;;;;;;;6.30;3.20;;;;;;;;;;5042019;28;20151;-88
2023/06/15 06:41:47;;;;;;;8.23;3.33;;;;;;;;;;5033699;28;20051;-88
2023/06/15 06:44:14;;;;;;;5.03;3.15;;;;;;;;;;5054892;28;20032;-88
2023/06/15 06:46:41;;;;;;;6.80;3.20;;;;;;;;;;5051305;28;20107;-88
2023/06/15 06:49:07;;;;;;;5.38;3.35;;;;;;;;;;5035792;28;20069;-88
2023/06/15 06:51:33;;;;;;;8.13;3.22;;;;;;;;;;5037632;28;20119;-88
2023/06/15 06:53:59;;;;;;;5.90;3.08;;;;;;;;;;5033128;28;20083;-88
2023/06/15 06:56:26;;;;;;;8.15;2.53;;;;;;;;;;5045642;28;20091;-87
2023/06/15 06:58:52;;;;;;;10.68;2.88;;;;;;;;;;5035742;28;20071;-89
2023/06/15 07:01:18;;;;;;;4.93;2.63;;;;;;;;;;5059629;28;20117;-90
2023/06/15 07:03:44;;;;;;;4.95;3.17;;;;;;;;;;5053641;28;20063;-90
2023/06/15 07:06:10;;;;;;;6.28;2.92;;;;;;;;;;5057140;28;20028;-90
2023/06/15 07:08:36;;;;;;;5.53;2.60;;;;;;;;;;5057141;28;20036;-90
2023/06/15 07:11:02;;;;;;;9.00;3.20;;;;;;;;;;5042339;28;20038;-90
2023/06/15 07:13:28;;;;;;;5.80;3.20;;;;;;;;;;5046946;28;20067;-90
2023/06/15 07:15:56;;;;;;;5.65;2.90;;;;;;;;;;5061054;28;20039;-90
2023/06/15 07:18:22;;;;;;;3.97;2.90;;;;;;;;;;5037494;28;20437;-90
2023/06/15 07:20:53;;;;;;;4.47;2.97;;;;;;;;;;5057640;28;20403;-91
2023/06/15 07:23:20;;;;;;;4.93;3.13;;;;;;;;;;5046993;28;20480;-90
2023/06/15 07:25:46;;;;;;;3.88;2.70;;;;;;;;;;5048344;28;20124;-90
2023/06/15 07:28:13;;;;;;;6.50;2.95;;;;;;;;;;5059740;28;20057;-90
2023/06/15 07:30:39;;;;;;;4.60;3.05;;;;;;;;;;5071948;28;20044;-90
2023/06/15 07:33:08;;;;;;;5.43;2.92;;;;;;;;;;5058349;28;20089;-90
2023/06/15 07:35:34;;;;;;;4.07;2.85;;;;;;;;;;5067751;28;20047;-90
2023/06/15 07:38:00;;;;;;;6.75;2.80;;;;;;;;;;5038561;28;20043;-90
2023/06/15 07:40:26;;;;;;;7.88;3.05;;;;;;;;;;5057558;28;20382;-90
2023/06/15 07:42:52;;;;;;;5.32;2.88;;;;;;;;;;5073339;28;20036;-91
2023/06/15 07:45:18;;;;;;;7.80;2.58;;;;;;;;;;5035950;28;20119;-90
2023/06/15 07:47:44;;;;;;;4.53;2.90;;;;;;;;;;5052050;28;20112;-90
2023/06/15 07:50:10;;;;;;;4.07;2.65;;;;;;;;;;5057925;28;20043;-90
2023/06/15 07:52:36;;;;;;;9.60;2.97;;;;;;;;;;5061888;28;20036;-90
2023/06/15 07:55:02;;;;;;;4.25;3.25;;;;;;;;;;5065829;28;20395;-90
2023/06/15 07:57:28;;;;;;;10.90;3.10;;;;;;;;;;5043610;28;20072;-91
2023/06/15 07:59:55;;;;;;;6.38;2.90;;;;;;;;;;5070156;28;20410;-90
2023/06/15 08:02:21;;;;;;;6.20;2.60;;;;;;;;;;5060838;28;20482;-90
2023/06/15 08:04:47;;;;;;;4.22;2.60;;;;;;;;;;5059694;28;20160;-90
2023/06/15 08:07:13;;;;;;;6.07;3.08;;;;;;;;;;5054364;28;20036;-89
2023/06/15 08:09:39;;;;;;;4.03;2.85;;;;;;;;;;5035891;28;20047;-90
2023/06/15 08:12:05;;;;;;;3.78;2.40;;;;;;;;;;5065271;28;20039;-90
2023/06/15 08:14:31;;;;;;;3.83;2.30;;;;;;;;;;5049559;28;20100;-90
2023/06/15 08:16:57;;;;;;;10.00;2.58;;;;;;;;;;5054627;28;20040;-90
2023/06/15 08:19:24;;;;;;;4.57;2.83;;;;;;;;;;5057314;28;20059;-89
2023/06/15 08:21:50;;;;;;;7.40;2.80;;;;;;;;;;5066600;28;20047;-91
2023/06/15 08:24:16;;;;;;;5.00;2.70;;;;;;;;;;5066770;28;20062;-91
2023/06/15 08:26:42;;;;;;;9.90;2.88;;;;;;;;;;5048172;28;20039;-90
2023/06/15 08:29:08;;;;;;;4.88;2.58;;;;;;;;;;5072280;28;20040;-90
2023/06/15 08:31:35;;;;;;;4.00;2.80;;;;;;;;;;5052468;28;20109;-90
2023/06/15 08:34:01;;;;;;;3.67;2.80;;;;;;;;;;5055501;28;20067;-90
2023/06/15 08:36:28;;;;;;;7.00;2.60;;;;;;;;;;5056818;28;20040;-90
2023/06/15 08:38:55;;;;;;;4.05;2.45;;;;;;;;;;5037624;28;20044;-91
2023/06/15 08:41:21;;;;;;;5.68;2.70;;;;;;;;;;5055763;28;20036;-90
2023/06/15 08:43:47;;;;;;;6.85;2.85;;;;;;;;;;5051521;28;20559;-91
2023/06/15 08:46:13;;;;;;;4.63;2.83;;;;;;;;;;5049169;28;20075;-90
2023/06/15 08:48:39;;;;;;;4.07;2.72;;;;;;;;;;5054534;28;20382;-90
2023/06/15 08:51:05;;;;;;;6.10;2.90;;;;;;;;;;5044905;28;20432;-91
2023/06/15 08:53:31;;;;;;;3.08;2.58;;;;;;;;;;5033880;28;20040;-91
2023/06/15 08:55:57;;;;;;;2.67;2.30;;;;;;;;;;5033832;28;20079;-90
2023/06/15 08:58:23;;;;;;;3.20;2.42;;;;;;;;;;5037153;28;20475;-91
2023/06/15 09:00:49;;;;;;;5.22;3.03;;;;;;;;;;5041503;28;20066;-90
2023/06/15 09:03:15;;;;;;;5.82;2.40;;;;;;;;;;5034291;28;20078;-91
2023/06/15 09:05:42;;;;;;;3.45;2.42;;;;;;;;;;5055583;28;20514;-91
2023/06/15 09:08:08;;;;;;;4.38;2.60;;;;;;;;;;5044844;28;20152;-90
2023/06/15 09:10:38;;;;;;;5.43;2.70;;;;;;;;;;5061544;28;20505;-91
2023/06/15 09:13:04;;;;;;;4.20;2.40;;;;;;;;;;5040108;28;20040;-90
2023/06/15 09:15:30;;;;;;;5.03;2.60;;;;;;;;;;5042424;28;20089;-90
2023/06/15 09:17:57;;;;;;;5.40;2.45;;;;;;;;;;5061813;28;20451;-90
2023/06/15 09:20:27;;;;;;;2.72;2.53;;;;;;;;;;5054293;28;20096;-91
2023/06/15 09:22:57;;;;;;;3.15;2.70;;;;;;;;;;5069059;28;20045;-90
2023/06/15 09:25:23;;;;;;;5.32;2.80;;;;;;;;;;5042466;28;20047;-91
2023/06/15 09:27:53;;;;;;;5.03;2.50;;;;;;;;;;5038393;28;20127;-91
2023/06/15 09:30:19;;;;;;;5.72;2.80;;;;;;;;;;5069712;28;20047;-90
2023/06/15 09:32:45;;;;;;;4.70;2.65;;;;;;;;;;5045473;28;20040;-91
2023/06/15 09:35:11;;;;;;;4.63;2.45;;;;;;;;;;5045797;28;20119;-90
2023/06/15 09:37:37;;;;;;;4.03;2.47;;;;;;;;;;5057556;28;20047;-91
2023/06/15 09:40:05;;;;;;;4.97;2.65;;;;;;;;;;5055731;28;20075;-90
2023/06/15 09:42:31;;;;;;;7.10;2.90;;;;;;;;;;5075213;28;20273;-89
2023/06/15 09:45:00;;;;;;;3.25;2.53;;;;;;;;;;5055809;28;20064;-90
2023/06/15 09:47:30;;;;;;;5.30;2.80;;;;;;;;;;5058224;28;20119;-91
2023/06/15 09:49:56;;;;;;;6.90;2.70;;;;;;;;;;5052672;28;20061;-91
2023/06/15 09:52:22;;;;;;;6.78;2.63;;;;;;;;;;5046647;28;20040;-90
2023/06/15 09:54:48;;;;;;;6.63;2.60;;;;;;;;;;5057555;28;20048;-90
2023/06/15 09:57:19;;;;;;;6.38;2.70;;;;;;;;;;5047494;28;20551;-91
2023/06/15 09:59:45;;;;;;;3.50;2.50;;;;;;;;;;5048582;28;20499;-90
2023/06/15 10:02:12;;;;;;;4.10;2.78;;;;;;;;;;5043624;28;20044;-91
2023/06/15 10:04:40;;;;;;;4.07;2.58;;;;;;;;;;5040486;28;20036;-90
2023/06/15 10:07:06;;;;;;;6.38;3.10;;;;;;;;;;5056045;28;20115;-90
2023/06/15 10:09:46;;;;;;;5.18;2.20;;;;;;;;;;5066314;28;20028;-91
2023/06/15 10:12:13;;;;;;;4.05;2.47;;;;;;;;;;5039245;28;20064;-91
2023/06/15 10:14:50;;;;;;;6.07;2.37;;;;;;;;;;5052686;28;20047;-90
2023/06/15 10:17:16;;;;;;;5.23;2.33;;;;;;;;;;5075313;28;20364;-90
2023/06/15 10:19:43;;;;;;;5.15;2.70;;;;;;;;;;5051840;28;20498;-90
2023/06/15 10:22:19;;;;;;;3.08;2.22;;;;;;;;;;5056838;28;20101;-89
2023/06/15 10:24:45;;;;;;;5.75;2.53;;;;;;;;;;5070128;28;20403;-91
2023/06/15 10:27:11;;;;;;;6.85;2.80;;;;;;;;;;5057512;28;20040;-91
2023/06/15 10:29:40;;;;;;;2.63;2.22;;;;;;;;;;5051699;28;20514;-90
2023/06/15 10:32:15;;;;;;;3.42;2.65;;;;;;;;;;5078588;28;20032;-90
2023/06/15 10:34:43;;;;;;;3.80;2.50;;;;;;;;;;5049507;28;20138;-89
2023/06/15 10:37:10;;;;;;;3.88;2.40;;;;;;;;;;5060248;28;20048;-89
2023/06/15 10:39:37;;;;;;;3.95;2.40;;;;;;;;;;5057920;28;20047;-90
2023/06/15 10:42:08;;;;;;;5.67;2.60;;;;;;;;;;5041089;28;20036;-90
2023/06/15 10:44:34;;;;;;;2.63;2.42;;;;;;;;;;5063579;28;20072;-90
2023/06/15 10:47:10;;;;;;;4.57;2.35;;;;;;;;;;5069580;28;20137;-90
2023/06/15 10:49:36;;;;;;;3.83;2.42;;;;;;;;;;5071814;28;20040;-90
2023/06/15 10:52:05;;;;;;;5.75;2.70;;;;;;;;;;5054279;28;20113;-90
2023/06/15 10:54:32;;;;;;;4.65;2.53;;;;;;;;;;5053100;28;20482;-89
2023/06/15 10:56:58;;;;;;;3.45;2.28;;;;;;;;;;5040526;28;20040;-89
2023/06/15 10:59:54;;;;;;;3.67;2.70;;;;;;;;;;5059180;28;20093;-90
2023/06/15 11:02:32;;;;;;;4.28;2.50;;;;;;;;;;5063528;28;20048;-91
2023/06/15 11:05:08;;;;;;;6.20;2.78;;;;;;;;;;5069212;28;20048;-90
2023/06/15 11:07:34;;;;;;;4.05;2.60;;;;;;;;;;5055858;28;20505;-90
2023/06/15 11:10:01;;;;;;;6.57;2.83;;;;;;;;;;5070890;28;20040;-90
2023/06/15 11:12:37;;;;;;;3.80;2.80;;;;;;;;;;5078959;28;20495;-91
2023/06/15 11:15:03;;;;;;;4.63;2.55;;;;;;;;;;5046831;28;20054;-90
2023/06/15 11:17:30;;;;;;;6.43;2.53;;;;;;;;;;5059694;28;20094;-90
2023/06/15 11:19:57;;;;;;;3.42;2.90;;;;;;;;;;5051089;28;20123;-91
2023/06/15 11:22:25;;;;;;;5.10;2.28;;;;;;;;;;5071555;28;20044;-90
2023/06/15 11:24:54;;;;;;;3.35;2.63;;;;;;;;;;5052953;28;20109;-90
2023/06/15 11:27:22;;;;;;;5.53;2.70;;;;;;;;;;5051227;28;20050;-91
2023/06/15 11:29:50;;;;;;;6.13;2.70;;;;;;;;;;5039463;28;20082;-90
2023/06/15 11:32:16;;;;;;;6.40;2.42;;;;;;;;;;5072632;28;20071;-90
2023/06/15 11:34:42;;;;;;;5.25;2.70;;;;;;;;;;5066060;28;20048;-90
2023/06/15 11:37:12;;;;;;;5.80;2.40;;;;;;;;;;5043636;28;20040;-90
2023/06/15 11:39:38;;;;;;;2.90;2.50;;;;;;;;;;5057995;28;20051;-91
2023/06/15 11:42:05;;;;;;;3.42;2.30;;;;;;;;;;5055302;28;20036;-90
2023/06/15 11:44:31;;;;;;;4.75;2.60;;;;;;;;;;5056354;28;20453;-90
2023/06/15 11:46:58;;;;;;;4.10;2.20;;;;;;;;;;5053968;28;20437;-90
2023/06/15 11:49:24;;;;;;;4.78;2.50;;;;;;;;;;5045311;28;20093;-90
2023/06/15 11:51:52;;;;;;;4.90;2.60;;;;;;;;;;5034511;28;20068;-91
2023/06/15 11:54:23;;;;;;;5.90;2.85;;;;;;;;;;5056559;28;20094;-90
2023/06/15 11:56:49;;;;;;;2.63;2.40;;;;;;;;;;5052466;28;20135;-90
2023/06/15 11:59:15;;;;;;;2.90;2.17;;;;;;;;;;5051993;28;20437;-90
2023/06/15 12:01:42;;;;;;;4.72;2.35;;;;;;;;;;5036603;28;20044;-91
2023/06/15 12:04:13;;;;;;;5.05;2.42;;;;;;;;;;5063406;28;20055;-92
2023/06/15 12:06:42;;;;;;;4.00;2.50;;;;;;;;;;5070531;28;20092;-90
2023/06/15 12:09:09;;;;;;;3.55;2.47;;;;;;;;;;5036137;28;20036;-90
2023/06/15 12:11:35;;;;;;;5.25;2.58;;;;;;;;;;5058133;28;20381;-90
2023/06/15 12:14:11;;;;;;;2.97;2.40;;;;;;;;;;5055637;28;20537;-91
2023/06/15 12:16:37;;;;;;;4.85;2.47;;;;;;;;;;5041772;28;20035;-91
2023/06/15 12:19:03;;;;;;;3.58;2.33;;;;;;;;;;5028818;28;20047;-90
2023/06/15 12:21:33;;;;;;;3.23;2.50;;;;;;;;;;5045264;28;20075;-90
2023/06/15 12:24:00;;;;;;;4.82;2.60;;;;;;;;;;5076462;28;21440;-91
2023/06/15 12:26:31;;;;;;;4.18;2.55;;;;;;;;;;5071322;28;20090;-91
2023/06/15 12:28:57;;;;;;;3.72;2.38;;;;;;;;;;5065781;28;20119;-91
2023/06/15 12:31:23;;;;;;;5.03;2.65;;;;;;;;;;5057989;28;20048;-90
2023/06/15 12:33:52;;;;;;;2.40;2.20;;;;;;;;;;5045405;28;20048;-90
2023/06/15 12:36:19;;;;;;;4.30;2.65;;;;;;;;;;5065493;28;20040;-91
2023/06/15 12:38:46;;;;;;;3.17;2.63;;;;;;;;;;5067872;28;20042;-91
2023/06/15 12:41:12;;;;;;;;;;;;;;;;;;5083872;28;20494;-91
2023/06/15 12:43:39;;;;;;;2.85;2.28;;;;;;;;;;5076170;28;19972;-89
2023/06/15 12:46:08;;;;;;;4.18;2.70;;;;;;;;;;5041118;28;20493;-90
2023/06/15 12:48:34;;;;;;;3.47;2.60;;;;;;;;;;5038955;28;20466;-92
2023/06/15 12:51:00;;;;;;;5.40;2.70;;;;;;;;;;5044892;28;20755;-90
2023/06/15 12:53:26;;;;;;;4.05;2.50;;;;;;;;;;5043941;28;20093;-91
2023/06/15 12:55:52;;;;;;;3.92;2.38;;;;;;;;;;5058964;28;20051;-90
2023/06/15 12:58:18;;;;;;;4.95;2.50;;;;;;;;;;5050443;28;20097;-90
2023/06/15 13:00:44;;;;;;;6.22;2.53;;;;;;;;;;5058038;28;20406;-90
2023/06/15 13:03:37;;;;;;;4.07;2.85;;;;;;;;;;5039727;28;20108;-90
2023/06/15 13:06:03;;;;;;;4.03;2.50;;;;;;;;;;5079816;28;20051;-90
2023/06/15 13:08:29;;;;;;;9.43;2.80;;;;;;;;;;5047270;28;20054;-89
2023/06/15 13:10:55;;;;;;;3.30;2.65;;;;;;;;;;5078904;28;20064;-91
2023/06/15 13:13:22;;;;;;;4.18;2.28;;;;;;;;;;5056205;28;20048;-90
2023/06/15 13:15:48;;;;;;;4.10;2.70;;;;;;;;;;5054690;28;20135;-90
2023/06/15 13:18:14;;;;;;;4.25;2.40;;;;;;;;;;5057486;28;20130;-90
2023/06/15 13:20:40;;;;;;;4.10;2.60;;;;;;;;;;5067418;28;20047;-90
2023/06/15 13:23:06;;;;;;;4.53;2.90;;;;;;;;;;5041547;28;20742;-90
2023/06/15 13:25:32;;;;;;;3.20;2.45;;;;;;;;;;5062037;28;20040;-89
2023/06/15 13:27:58;;;;;;;5.72;2.90;;;;;;;;;;5054685;28;20036;-90
2023/06/15 13:30:25;;;;;;;5.57;2.75;;;;;;;;;;5052933;28;20040;-90
2023/06/15 13:32:51;;;;;;;6.78;2.70;;;;;;;;;;5036985;28;20052;-90
2023/06/15 13:35:17;;;;;;;3.45;2.72;;;;;;;;;;5038842;28;20036;-90
2023/06/15 13:37:43;;;;;;;5.63;2.70;;;;;;;;;;5057502;28;20054;-92
2023/06/15 13:40:10;;;;;;;5.18;2.70;;;;;;;;;;5055179;28;20418;-90
2023/06/15 13:42:42;;;;;;;3.78;2.30;;;;;;;;;;5038505;28;20040;-90
2023/06/15 13:45:09;;;;;;;3.25;2.50;;;;;;;;;;5071859;28;20056;-89
2023/06/15 13:47:36;;;;;;;3.28;2.50;;;;;;;;;;5047079;28;20215;-90
2023/06/15 13:50:03;;;;;;;4.18;2.60;;;;;;;;;;5051914;28;20109;-89
2023/06/15 13:52:29;;;;;;;4.55;2.60;;;;;;;;;;5058406;28;20127;-90
2023/06/15 13:54:55;;;;;;;3.92;2.35;;;;;;;;;;5072680;28;20040;-90
2023/06/15 13:57:22;;;;;;;3.70;2.53;;;;;;;;;;5070070;28;20048;-90
2023/06/15 13:59:49;;;;;;;6.50;2.80;;;;;;;;;;5054345;28;20048;-90
2023/06/15 14:02:15;;;;;;;5.93;2.35;;;;;;;;;;5059322;28;20882;-90
2023/06/15 14:04:41;;;;;;;8.93;2.42;;;;;;;;;;5044335;28;20038;-90
2023/06/15 14:07:07;;;;;;;5.28;2.17;;;;;;;;;;5028414;28;20051;-89
2023/06/15 14:09:33;;;;;;;5.35;2.90;;;;;;;;;;5056707;28;20039;-90
2023/06/15 14:11:59;;;;;;;6.63;2.63;;;;;;;;;;5064976;28;22377;-90
2023/06/15 14:14:26;;;;;;;3.08;2.63;;;;;;;;;;5073803;28;20044;-90
2023/06/15 14:16:53;;;;;;;4.80;2.97;;;;;;;;;;5062743;28;20048;-90
2023/06/15 14:19:20;;;;;;;3.38;2.45;;;;;;;;;;5053030;28;20054;-90
2023/06/15 14:21:46;;;;;;;4.72;2.80;;;;;;;;;;5045722;28;20036;-90
2023/06/15 14:24:12;;;;;;;4.55;2.42;;;;;;;;;;5040981;28;20559;-90
2023/06/15 14:26:41;;;;;;;3.95;2.33;;;;;;;;;;5039235;28;20072;-90
2023/06/15 14:29:09;;;;;;;4.88;2.72;;;;;;;;;;5049155;28;20066;-90
2023/06/15 14:31:37;;;;;;;5.60;2.72;;;;;;;;;;5083072;28;20043;-89
2023/06/15 14:34:06;;;;;;;4.95;2.63;;;;;;;;;;5077768;27;20039;-90
2023/06/15 14:36:32;;;;;;;5.50;2.70;;;;;;;;;;5044373;28;20039;-89
2023/06/15 14:38:58;;;;;;;3.47;2.65;;;;;;;;;;5039041;28;20047;-89
2023/06/15 14:41:25;;;;;;;3.53;2.63;;;;;;;;;;5078888;27;20043;-91
2023/06/15 14:43:51;;;;;;;3.15;2.50;;;;;;;;;;5050719;28;20040;-90
2023/06/15 14:46:17;;;;;;;4.93;2.53;;;;;;;;;;5032344;28;20060;-89
2023/06/15 14:48:43;;;;;;;3.85;2.85;;;;;;;;;;5024531;28;20040;-90
2023/06/15 14:51:09;;;;;;;10.23;3.40;;;;;;;;;;5051862;28;20040;-88
2023/06/15 14:53:35;;;;;;;4.70;2.60;;;;;;;;;;5047834;28;20046;-88
2023/06/15 14:56:01;;;;;;;5.15;2.80;;;;;;;;;;5046419;28;20070;-88
2023/06/15 14:58:27;;;;;;;5.35;2.80;;;;;;;;;;5066775;28;20790;-89
2023/06/15 15:00:54;;;;;;;4.05;2.95;;;;;;;;;;5043964;28;20044;-89
2023/06/15 15:03:20;;;;;;;5.13;2.70;;;;;;;;;;5029255;28;20045;-89
2023/06/15 15:05:46;;;;;;;4.43;2.70;;;;;;;;;;5027581;28;20036;-90
2023/06/15 15:08:12;;;;;;;6.75;3.05;;;;;;;;;;5046313;28;20097;-89
2023/06/15 15:10:38;;;;;;;3.90;2.90;;;;;;;;;;5045088;28;24589;-89
2023/06/15 15:13:04;;;;;;;5.15;2.88;;;;;;;;;;5052663;28;20067;-88
2023/06/15 15:15:30;;;;;;;4.75;2.40;;;;;;;;;;5045533;28;20048;-88
2023/06/15 15:17:56;;;;;;;5.47;2.60;;;;;;;;;;5063082;28;20051;-89
2023/06/15 15:20:22;;;;;;;3.45;2.83;;;;;;;;;;5061747;28;20150;-90
2023/06/15 15:22:48;;;;;;;7.82;3.35;;;;;;;;;;5061712;28;20068;-88
2023/06/15 15:25:14;;;;;;;5.22;2.75;;;;;;;;;;5036474;28;20498;-89
2023/06/15 15:27:40;;;;;;;6.75;2.78;;;;;;;;;;5048899;28;20214;-88
2023/06/15 15:30:09;;;;;;;5.55;2.67;;;;;;;;;;5060027;28;20036;-88
2023/06/15 15:32:35;;;;;;;3.40;2.72;;;;;;;;;;5064369;28;20050;-88
2023/06/15 15:35:01;;;;;;;4.57;2.72;;;;;;;;;;5053165;28;20182;-89
2023/06/15 15:37:27;;;;;;;3.08;2.55;;;;;;;;;;5042415;28;20048;-89
2023/06/15 15:39:53;;;;;;;4.93;2.70;;;;;;;;;;5038784;28;20047;-89
2023/06/15 15:42:20;;;;;;;7.57;2.88;;;;;;;;;;5056696;28;21806;-88
2023/06/15 15:44:46;;;;;;;7.38;3.33;;;;;;;;;;5037356;28;20048;-88
2023/06/15 15:47:12;;;;;;;4.65;2.70;;;;;;;;;;5042780;28;20487;-89
2023/06/15 15:49:39;;;;;;;3.92;2.60;;;;;;;;;;5028848;28;20507;-88
2023/06/15 15:52:05;;;;;;;6.25;2.90;;;;;;;;;;5027566;28;20041;-88
2023/06/15 15:54:31;;;;;;;7.05;2.92;;;;;;;;;;5024896;28;20047;-89
2023/06/15 15:56:57;;;;;;;4.88;2.65;;;;;;;;;;5044957;28;20122;-89
2023/06/15 15:59:23;;;;;;;4.88;2.80;;;;;;;;;;5043788;28;20392;-90
2023/06/15 16:01:49;;;;;;;7.10;2.60;;;;;;;;;;5023498;28;20200;-90
2023/06/15 16:04:16;;;;;;;9.82;2.72;;;;;;;;;;5064589;28;20365;-90
2023/06/15 16:06:44;;;;;;;6.38;2.80;;;;;;;;;;5038708;28;20414;-90
2023/06/15 16:09:10;;;;;;;4.72;2.80;;;;;;;;;;5043535;28;20758;-90
2023/06/15 16:11:36;;;;;;;5.38;2.90;;;;;;;;;;5025167;28;20048;-89
2023/06/15 16:14:03;;;;;;;3.97;2.45;;;;;;;;;;5033162;28;20052;-88
2023/06/15 16:16:29;;;;;;;4.13;2.78;;;;;;;;;;5053379;28;20046;-89
2023/06/15 16:18:55;;;;;;;4.80;2.55;;;;;;;;;;5053419;28;20145;-88
2023/06/15 16:21:22;;;;;;;4.63;2.90;;;;;;;;;;5059933;28;20063;-89
2023/06/15 16:23:48;;;;;;;3.78;2.70;;;;;;;;;;5032745;28;20504;-89
2023/06/15 16:26:14;;;;;;;4.38;2.30;;;;;;;;;;5049298;28;20044;-90
2023/06/15 16:28:40;;;;;;;6.60;2.60;;;;;;;;;;5041310;28;20035;-89
2023/06/15 16:31:06;;;;;;;4.78;2.65;;;;;;;;;;5062604;28;20036;-89
2023/06/15 16:33:32;;;;;;;4.75;2.47;;;;;;;;;;5063195;28;20036;-89
2023/06/15 16:35:58;;;;;;;4.55;2.50;;;;;;;;;;5041976;28;20397;-84
2023/06/15 16:38:24;;;;;;;5.80;2.20;;;;;;;;;;5058412;28;20106;-86
2023/06/15 16:40:51;;;;;;;4.93;2.65;;;;;;;;;;5056501;28;20040;-85
2023/06/15 16:43:17;;;;;;;4.28;2.75;;;;;;;;;;5074354;28;20640;-85
2023/06/15 16:45:43;;;;;;;3.85;2.30;;;;;;;;;;5062188;28;20546;-85
2023/06/15 16:48:09;;;;;;;7.07;2.83;;;;;;;;;;5058823;28;20098;-84
2023/06/15 16:50:35;;;;;;;8.47;2.80;;;;;;;;;;5066095;28;20040;-85
2023/06/15 16:53:02;;;;;;;5.22;2.70;;;;;;;;;;5064339;28;20036;-84
2023/06/15 16:55:28;;;;;;;5.13;2.78;;;;;;;;;;5056467;28;20514;-85
2023/06/15 16:57:54;;;;;;;3.67;2.10;;;;;;;;;;5058154;28;20036;-83
2023/06/15 17:00:21;;;;;;;2.80;2.20;;;;;;;;;;5060320;28;20044;-83
2023/06/15 17:02:47;;;;;;;3.72;2.67;;;;;;;;;;5038498;28;20560;-85
2023/06/15 17:05:14;;;;;;;3.28;2.22;;;;;;;;;;5063394;28;20796;-83
2023/06/15 17:07:40;;;;;;;6.97;2.58;;;;;;;;;;5059154;28;20502;-84
2023/06/15 17:10:07;;;;;;;4.60;2.63;;;;;;;;;;5062279;28;20047;-84
2023/06/15 17:12:33;;;;;;;5.38;2.60;;;;;;;;;;5066094;28;20072;-84
2023/06/15 17:14:59;;;;;;;5.68;2.42;;;;;;;;;;5061104;28;22261;-85
2023/06/15 17:17:25;;;;;;;4.00;2.40;;;;;;;;;;5060051;28;20808;-85
2023/06/15 17:19:51;;;;;;;5.07;2.38;;;;;;;;;;5059137;28;20123;-84
2023/06/15 17:22:17;;;;;;;5.18;2.63;;;;;;;;;;5074265;28;20059;-84
2023/06/15 17:24:43;;;;;;;3.20;2.15;;;;;;;;;;5052147;28;20060;-85
2023/06/15 17:27:11;;;;;;;4.00;2.50;;;;;;;;;;5060459;28;20055;-85
2023/06/15 17:29:37;;;;;;;5.47;2.50;;;;;;;;;;5047532;28;20043;-85
2023/06/15 17:32:03;;;;;;;4.75;2.50;;;;;;;;;;5072505;28;20032;-84
2023/06/15 17:34:31;;;;;;;3.13;2.50;;;;;;;;;;5060749;28;20199;-84
2023/06/15 17:36:57;;;;;;;4.53;2.45;;;;;;;;;;5064248;28;20036;-85
2023/06/15 17:39:23;;;;;;;7.25;2.60;;;;;;;;;;5070939;28;20071;-85
2023/06/15 17:41:49;;;;;;;5.47;2.50;;;;;;;;;;5064421;28;20118;-84
2023/06/15 17:44:15;;;;;;;5.10;2.60;;;;;;;;;;5053690;28;20032;-85
2023/06/15 17:46:41;;;;;;;3.55;2.50;;;;;;;;;;5057484;28;20039;-84
2023/06/15 17:49:11;;;;;;;3.75;2.35;;;;;;;;;;5069876;28;20036;-84
2023/06/15 17:51:37;;;;;;;3.35;2.72;;;;;;;;;;5068375;28;20379;-84
2023/06/15 17:54:03;;;;;;;3.25;2.50;;;;;;;;;;5068063;28;20100;-85
2023/06/15 17:56:30;;;;;;;3.72;2.78;;;;;;;;;;5064429;28;20036;-85
2023/06/15 17:58:56;;;;;;;4.15;2.30;;;;;;;;;;5062411;28;20448;-83
2023/06/15 18:01:22;;;;;;;6.43;2.35;;;;;;;;;;5052557;28;20162;-84
2023/06/15 18:03:48;;;;;;;4.95;2.75;;;;;;;;;;5048001;28;20485;-84
2023/06/15 18:06:14;;;;;;;3.45;2.45;;;;;;;;;;5065978;28;20040;-84
2023/06/15 18:08:40;;;;;;;4.82;2.60;;;;;;;;;;5024340;28;20692;-84
2023/06/15 18:11:06;;;;;;;4.45;2.30;;;;;;;;;;5067860;28;20032;-84
2023/06/15 18:13:36;;;;;;;3.33;2.33;;;;;;;;;;5068159;28;20040;-86
2023/06/15 18:16:02;;;;;;;3.55;2.38;;;;;;;;;;5062333;28;20040;-84